»·PEaware :: AAL1977 KPHX-KSAN

AAL1977 :: KPHX-KSAN

FLIGHT INFORMATION

Flight Status: Arrived
Operator:
American Airlines
More flights by this operator :: More flights under this callsign
Pilot: Jac C. (16067)
Aircraft: AIRBUS A320
(A320)
More flights by this aircraft type
Origin: KPHX Phoenix Sky Harbor Intl
United States
Destination: KSAN San Diego Intl-Lindbergh
United States
More flights between these airports :: More routes between these airports
Route: +JUDTH6 MOHAK J2 HOGGZ LUCKI1
File this flight plan on PilotEdge
Remarks:
Altitude:
(Current/Filed)
30,000ft
Speed:
(Current/Filed)
392kts
Departed: 30-Jan-18 10:39 AM
Arrived: 30-Jan-18 11:32 AM
Distance/Time
Traveled:
264nm/0:53
Distance/Time
To Go:
Arrived

Flight Plot

Page will automatically refresh every two minutes.

Flight plan parsing failed; only flown route is shown


Map Options




Map Legend


Flown Route
Filed Route
Departure Airport
Arrival Airport
Navaid (VOR, NDB)
Fix

Horizontal Profiles

Position Reports

Time Latitude Longitude Heading Altitude Ground
Speed
30-Jan-18 10:09 33.434214 -112.009314 89 1129ft 0kts
30-Jan-18 10:10 33.434214 -112.009314 89 1129ft 0kts
30-Jan-18 10:11 33.434214 -112.009314 89 1129ft 0kts
30-Jan-18 10:12 33.434214 -112.009314 89 1129ft 0kts
30-Jan-18 10:13 33.434214 -112.009314 89 1129ft 0kts
30-Jan-18 10:14 33.434214 -112.009314 89 1129ft 0kts
30-Jan-18 10:15 33.434214 -112.009314 89 1129ft 0kts
30-Jan-18 10:18 33.434075 -112.008204 290 1131ft 0kts
30-Jan-18 10:19 33.434075 -112.008204 290 1131ft 0kts
30-Jan-18 10:20 33.434075 -112.008204 290 1131ft 0kts
30-Jan-18 10:21 33.434075 -112.008204 290 1131ft 0kts
30-Jan-18 10:22 33.434075 -112.008204 290 1131ft 0kts
30-Jan-18 10:23 33.434075 -112.008204 290 1131ft 0kts
30-Jan-18 10:24 33.434075 -112.008204 290 1131ft 0kts
30-Jan-18 10:25 33.434075 -112.008204 290 1131ft 0kts
30-Jan-18 10:26 33.434075 -112.008204 290 1131ft 0kts
30-Jan-18 10:27 33.434075 -112.008204 290 1131ft 0kts
30-Jan-18 10:28 33.434075 -112.008204 290 1131ft 0kts
30-Jan-18 10:29 33.434075 -112.008204 290 1131ft 0kts
30-Jan-18 10:30 33.434075 -112.008204 290 1131ft 0kts
30-Jan-18 10:31 33.434075 -112.008204 290 1131ft 0kts
30-Jan-18 10:32 33.434075 -112.008204 290 1131ft 0kts
30-Jan-18 10:33 33.434075 -112.008204 290 1131ft 0kts
30-Jan-18 10:34 33.434075 -112.008204 290 1131ft 0kts
30-Jan-18 10:35 33.433983 -112.007854 263 1130ft 2kts
30-Jan-18 10:36 33.434299 -112.007543 180 1130ft 0kts
30-Jan-18 10:37 33.434298 -112.007542 180 1130ft 0kts
30-Jan-18 10:38 33.434298 -112.007542 180 1130ft 0kts
30-Jan-18 10:39 33.434298 -112.007542 180 1130ft 0kts
30-Jan-18 10:40 33.432798 -112.007549 179 1130ft 11kts
30-Jan-18 10:41 33.432155 -112.011627 269 1128ft 19kts
30-Jan-18 10:42 33.432171 -112.019212 268 1120ft 23kts
30-Jan-18 10:43 33.432166 -112.026242 273 1116ft 13kts
30-Jan-18 10:44 33.431798 -112.026972 182 1115ft 8kts
30-Jan-18 10:45 33.431055 -112.011538 90 1326ft 151kts
30-Jan-18 10:46 33.432429 -111.943385 87 4750ft 231kts
30-Jan-18 10:47 33.426436 -111.867153 130 9172ft 250kts
30-Jan-18 10:48 33.363736 -111.861570 226 13396ft 271kts
30-Jan-18 10:49 33.358352 -111.950992 274 17019ft 297kts
30-Jan-18 10:50 33.340391 -112.053868 234 18940ft 353kts
30-Jan-18 10:51 33.280766 -112.150295 235 21612ft 370kts
30-Jan-18 10:52 33.218467 -112.251380 235 23971ft 386kts
30-Jan-18 10:53 33.154166 -112.355544 235 26069ft 401kts
30-Jan-18 10:54 33.087159 -112.463790 235 27972ft 414kts
30-Jan-18 10:55 33.017531 -112.575936 235 29685ft 427kts
30-Jan-18 10:56 32.955798 -112.691933 254 30254ft 412kts
30-Jan-18 10:57 32.936011 -112.825689 262 30229ft 413kts
30-Jan-18 10:58 32.917741 -112.960335 262 30207ft 413kts
30-Jan-18 10:59 32.899495 -113.093909 262 30207ft 413kts
30-Jan-18 11:00 32.880967 -113.228496 262 30207ft 413kts
30-Jan-18 11:01 32.862336 -113.362753 262 30208ft 413kts
30-Jan-18 11:02 32.843478 -113.497554 262 30208ft 413kts
30-Jan-18 11:03 32.824521 -113.632009 262 30207ft 416kts
30-Jan-18 11:04 32.805507 -113.765658 261 30207ft 412kts
30-Jan-18 11:05 32.786303 -113.899670 261 30207ft 413kts
30-Jan-18 11:06 32.775261 -114.034693 270 30207ft 411kts
30-Jan-18 11:07 32.778974 -114.169743 273 30208ft 411kts
30-Jan-18 11:08 32.784296 -114.304779 273 30208ft 411kts
30-Jan-18 11:09 32.798545 -114.426555 288 29680ft 381kts
30-Jan-18 11:10 32.831014 -114.544399 288 28823ft 374kts
30-Jan-18 11:11 32.862516 -114.659299 287 27984ft 368kts
30-Jan-18 11:12 32.878276 -114.777379 269 27158ft 364kts
30-Jan-18 11:13 32.875586 -114.896860 269 26317ft 359kts
30-Jan-18 11:14 32.872888 -115.014614 268 25481ft 355kts
30-Jan-18 11:15 32.870119 -115.131027 268 24640ft 350kts
30-Jan-18 11:16 32.867289 -115.245614 268 24173ft 348kts
30-Jan-18 11:17 32.862575 -115.357961 261 24177ft 348kts
30-Jan-18 11:18 32.846648 -115.471259 261 24177ft 348kts
30-Jan-18 11:19 32.828651 -115.584402 259 24177ft 348kts
30-Jan-18 11:20 32.810814 -115.692795 259 23190ft 345kts
30-Jan-18 11:21 32.792718 -115.802449 258 21616ft 334kts
30-Jan-18 11:22 32.780602 -115.909910 264 19958ft 323kts
30-Jan-18 11:23 32.772791 -116.014083 264 18244ft 313kts
30-Jan-18 11:24 32.765166 -116.114825 264 16653ft 303kts
30-Jan-18 11:25 32.757281 -116.218327 264 15230ft 326kts
30-Jan-18 11:26 32.749041 -116.324885 264 13255ft 320kts
30-Jan-18 11:27 32.741034 -116.427512 264 11608ft 305kts
30-Jan-18 11:28 32.733072 -116.525481 263 10164ft 293kts
30-Jan-18 11:29 32.723991 -116.618241 263 8672ft 286kts
30-Jan-18 11:30 32.717079 -116.694613 264 7518ft 279kts
30-Jan-18 11:31 32.710084 -116.784838 264 6256ft 268kts
30-Jan-18 11:32 32.696848 -116.882209 241 5593ft 245kts
30-Jan-18 11:33 32.678664 -116.953705 283 5075ft 223kts
30-Jan-18 11:34 32.691488 -117.011871 285 4192ft 212kts
30-Jan-18 11:35 32.706214 -117.076581 286 2382ft 197kts
30-Jan-18 11:36 32.720429 -117.135317 287 920ft 169kts
30-Jan-18 11:37 32.732412 -117.185252 287 22ft 140kts
30-Jan-18 11:38 32.734547 -117.198853 222 19ft 0kts
30-Jan-18 11:39 32.734131 -117.199457 239 19ft 9kts
30-Jan-18 11:40 32.733910 -117.200491 260 19ft 0kts
30-Jan-18 11:43 32.733910 -117.200491 260 19ft 0kts

Navigation Log

Ident Type
Flight plan parsing failed, navigation log unavailable